createdAt,value
2023-04-10T00:01:55.785Z,9.06
2023-04-10T00:04:23.749Z,9.04
2023-04-10T00:06:51.664Z,9.01
2023-04-10T00:09:19.487Z,8.98
2023-04-10T00:11:47.443Z,8.96
2023-04-10T00:14:15.379Z,8.96
2023-04-10T00:16:43.239Z,8.94
2023-04-10T00:19:11.341Z,8.95
2023-04-10T00:21:39.255Z,8.96
2023-04-10T00:24:07.511Z,8.95
2023-04-10T00:26:36.262Z,8.94
2023-04-10T00:29:04.348Z,8.93
2023-04-10T00:31:32.333Z,8.92
2023-04-10T00:34:00.397Z,8.91
2023-04-10T00:36:28.475Z,8.91
2023-04-10T00:38:56.395Z,8.90
2023-04-10T00:41:24.240Z,8.90
2023-04-10T00:43:56.968Z,8.90
2023-04-10T00:46:25.212Z,8.90
2023-04-10T00:48:54.712Z,8.91
2023-04-10T00:51:23.110Z,8.91
2023-04-10T00:53:51.838Z,8.92
2023-04-10T00:56:20.912Z,8.93
2023-04-10T00:58:49.331Z,8.94
2023-04-10T01:01:17.868Z,8.95
2023-04-10T01:03:46.225Z,8.96
2023-04-10T01:06:28.342Z,8.97
2023-04-10T01:09:09.756Z,8.98
2023-04-10T01:11:43.480Z,8.99
2023-04-10T01:14:33.428Z,8.98
2023-04-10T01:17:08.037Z,8.98
2023-04-10T01:20:14.554Z,8.98
2023-04-10T01:22:50.790Z,8.92
2023-04-10T01:25:31.475Z,8.86
2023-04-10T01:28:18.944Z,8.87
2023-04-10T01:30:58.431Z,8.90
2023-04-10T01:33:39.020Z,8.94
2023-04-10T01:36:08.312Z,8.96
2023-04-10T01:38:38.160Z,8.96
2023-04-10T01:41:07.371Z,8.98
2023-04-10T01:43:36.970Z,9.00
2023-04-10T01:46:05.421Z,9.01
2023-04-10T01:48:33.284Z,9.01
2023-04-10T01:51:04.991Z,9.01
2023-04-10T01:53:33.742Z,9.02
2023-04-10T01:56:02.981Z,9.02
2023-04-10T01:58:35.756Z,9.03
2023-04-10T02:01:04.626Z,9.01
2023-04-10T02:03:33.055Z,8.99
2023-04-10T02:06:07.211Z,8.96
2023-04-10T02:08:38.032Z,8.95
2023-04-10T02:11:18.726Z,8.93
2023-04-10T02:13:49.325Z,8.90
2023-04-10T02:16:19.928Z,8.85
2023-04-10T02:18:49.888Z,8.82
2023-04-10T02:21:18.455Z,8.78
2023-04-10T02:23:46.556Z,8.73
2023-04-10T02:26:16.471Z,8.68
2023-04-10T02:28:44.299Z,8.63
2023-04-10T02:31:12.169Z,8.57
2023-04-10T02:33:40.045Z,8.49
2023-04-10T02:36:08.483Z,8.40
2023-04-10T02:38:36.340Z,8.26
2023-04-10T02:41:04.948Z,8.11
2023-04-10T02:43:32.791Z,7.98
2023-04-10T02:46:00.718Z,7.91
2023-04-10T02:48:29.697Z,7.86
2023-04-10T02:51:00.369Z,7.82
2023-04-10T02:53:29.510Z,7.78
2023-04-10T02:55:59.843Z,7.74
2023-04-10T02:58:30.459Z,7.70
2023-04-10T03:00:58.678Z,7.63
2023-04-10T03:03:40.514Z,7.50
2023-04-10T03:06:09.811Z,7.43
2023-04-10T03:08:38.221Z,7.39
2023-04-10T03:11:08.008Z,7.36
2023-04-10T03:13:36.034Z,7.32
2023-04-10T03:16:04.223Z,7.30
2023-04-10T03:18:34.281Z,7.27
2023-04-10T03:21:02.705Z,7.23
2023-04-10T03:23:30.628Z,7.20
2023-04-10T03:25:58.559Z,7.19
2023-04-10T03:28:29.692Z,7.18
2023-04-10T03:30:57.674Z,7.17
2023-04-10T03:33:25.876Z,7.14
2023-04-10T03:35:53.964Z,7.11
2023-04-10T03:38:21.916Z,7.11
2023-04-10T03:40:50.349Z,7.11
2023-04-10T03:43:20.710Z,7.11
2023-04-10T03:45:48.723Z,7.13
2023-04-10T03:48:17.993Z,7.17
2023-04-10T03:50:47.537Z,7.21
2023-04-10T03:53:17.213Z,7.24
2023-04-10T03:55:46.131Z,7.26
2023-04-10T03:58:14.311Z,7.23
2023-04-10T04:00:42.385Z,7.21
2023-04-10T04:03:22.957Z,7.23
2023-04-10T04:05:54.080Z,7.28
2023-04-10T04:08:32.482Z,7.33
2023-04-10T04:11:09.584Z,7.38
2023-04-10T04:13:47.383Z,7.42
2023-04-10T04:16:30.216Z,7.46
2023-04-10T04:19:13.898Z,7.51
2023-04-10T04:22:00.561Z,7.55
2023-04-10T04:24:57.576Z,7.61
2023-04-10T04:27:48.268Z,7.64
2023-04-10T04:30:32.743Z,7.68
2023-04-10T04:33:15.714Z,7.73
2023-04-10T04:36:09.907Z,7.76
2023-04-10T04:38:37.768Z,7.80
2023-04-10T04:41:24.687Z,7.84
2023-04-10T04:44:07.868Z,7.89
2023-04-10T04:46:50.951Z,7.92
2023-04-10T04:49:24.941Z,7.97
2023-04-10T04:52:11.645Z,8.02
2023-04-10T04:54:43.221Z,8.06
2023-04-10T04:57:37.448Z,8.11
2023-04-10T05:00:28.726Z,8.16
2023-04-10T05:03:07.052Z,8.18
2023-04-10T05:05:40.350Z,8.22
2023-04-10T05:08:29.074Z,8.26
2023-04-10T05:11:23.464Z,8.30
2023-04-10T05:14:09.915Z,8.35
2023-04-10T05:16:57.968Z,8.39
2023-04-10T05:19:47.171Z,8.42
2023-04-10T05:22:53.246Z,8.46
2023-04-10T05:25:47.602Z,8.51
2023-04-10T05:28:22.797Z,8.55
2023-04-10T05:31:16.507Z,8.61
2023-04-10T05:34:13.838Z,8.68
2023-04-10T05:37:01.550Z,8.77
2023-04-10T05:39:52.171Z,8.85
2023-04-10T05:42:55.287Z,8.95
2023-04-10T05:45:28.873Z,9.06
2023-04-10T05:48:15.369Z,9.18
2023-04-10T05:50:59.080Z,9.27
2023-04-10T05:53:42.834Z,9.39
2023-04-10T05:56:46.204Z,9.51
2023-04-10T05:59:52.463Z,9.59
2023-04-10T06:02:39.089Z,9.66
2023-04-10T06:05:08.596Z,9.70
2023-04-10T06:07:36.731Z,9.72
2023-04-10T06:10:05.396Z,9.76
2023-04-10T06:12:36.167Z,9.85
2023-04-10T06:15:04.825Z,10.06
2023-04-10T06:17:35.453Z,10.38
2023-04-10T06:20:04.633Z,10.71
2023-04-10T06:22:32.723Z,11.04
2023-04-10T06:25:00.640Z,11.39
2023-04-10T06:27:29.012Z,11.65
2023-04-10T06:29:57.147Z,11.84
2023-04-10T06:32:25.122Z,12.07
2023-04-10T06:34:53.045Z,12.31
2023-04-10T06:37:29.272Z,12.53
2023-04-10T06:40:02.711Z,12.80
2023-04-10T06:42:30.725Z,13.25
2023-04-10T06:45:03.192Z,13.59
2023-04-10T06:47:32.246Z,13.77
2023-04-10T06:50:00.235Z,13.89
2023-04-10T06:52:28.139Z,14.04
2023-04-10T06:54:55.978Z,14.22
2023-04-10T06:57:23.852Z,14.36
2023-04-10T06:59:51.697Z,14.49
2023-04-10T07:02:19.657Z,14.59
2023-04-10T07:04:47.624Z,14.74
2023-04-10T07:07:16.039Z,14.84
2023-04-10T07:09:43.969Z,14.92
2023-04-10T07:12:11.895Z,15.08
2023-04-10T07:14:39.771Z,15.33
2023-04-10T07:17:07.936Z,15.50
2023-04-10T07:19:35.922Z,15.58
2023-04-10T07:22:04.149Z,15.59
2023-04-10T07:24:32.689Z,15.56
2023-04-10T07:27:01.682Z,15.52
2023-04-10T07:29:30.830Z,15.48
2023-04-10T07:31:58.804Z,15.47
2023-04-10T07:34:26.781Z,15.53
2023-04-10T07:36:54.622Z,15.57
2023-04-10T07:39:22.511Z,15.57
2023-04-10T07:41:50.564Z,15.45
2023-04-10T07:44:18.593Z,15.44
2023-04-10T07:46:46.457Z,15.52
2023-04-10T07:49:14.314Z,15.60
2023-04-10T07:51:42.208Z,15.71
2023-04-10T07:54:10.050Z,15.86
2023-04-10T07:56:37.958Z,15.88
2023-04-10T07:59:06.014Z,15.68
2023-04-10T08:01:34.153Z,15.69
2023-04-10T08:04:05.616Z,15.90
2023-04-10T08:06:34.051Z,16.13
2023-04-10T08:09:02.153Z,16.28
2023-04-10T08:11:32.056Z,16.26
2023-04-10T08:14:01.891Z,16.40
2023-04-10T08:16:31.877Z,16.48
2023-04-10T08:19:01.405Z,16.47
2023-04-10T08:21:31.940Z,16.55
2023-04-10T08:24:02.077Z,16.68
2023-04-10T08:26:30.041Z,16.71
2023-04-10T08:28:59.851Z,16.64
2023-04-10T08:31:29.069Z,16.53
2023-04-10T08:33:57.586Z,16.45
2023-04-10T08:36:27.176Z,16.42
2023-04-10T08:38:55.421Z,16.38
2023-04-10T08:41:23.281Z,16.30
2023-04-10T08:43:51.304Z,16.27
2023-04-10T08:46:20.172Z,16.25
2023-04-10T08:48:53.230Z,16.26
2023-04-10T08:51:26.000Z,16.17
2023-04-10T08:53:59.181Z,16.14
2023-04-10T08:56:27.544Z,16.16
2023-04-10T08:58:55.582Z,16.25
2023-04-10T09:01:24.194Z,16.33
2023-04-10T09:03:52.529Z,16.40
2023-04-10T09:06:20.403Z,16.41
2023-04-10T09:08:48.244Z,16.26
2023-04-10T09:11:16.171Z,16.10
2023-04-10T09:13:45.083Z,15.90
2023-04-10T09:16:14.302Z,15.72
2023-04-10T09:18:50.695Z,15.66
2023-04-10T09:21:20.885Z,15.52
2023-04-10T09:23:49.667Z,15.30
2023-04-10T09:26:24.619Z,15.15
2023-04-10T09:28:56.857Z,15.16
2023-04-10T09:31:34.065Z,15.28
2023-04-10T09:34:23.781Z,15.34
2023-04-10T09:36:59.990Z,15.44
2023-04-10T09:39:36.077Z,15.61
2023-04-10T09:42:04.620Z,15.78
2023-04-10T09:44:37.365Z,15.86
2023-04-10T09:47:14.205Z,15.84
2023-04-10T09:49:50.476Z,15.77
2023-04-10T09:52:22.563Z,15.70
2023-04-10T09:54:50.411Z,15.70
2023-04-10T09:57:20.118Z,15.69
2023-04-10T09:59:52.871Z,15.67
2023-04-10T10:02:23.184Z,15.57
2023-04-10T10:04:52.553Z,15.59
2023-04-10T10:07:22.757Z,15.60
2023-04-10T10:09:52.497Z,15.58
2023-04-10T10:12:29.739Z,15.56
2023-04-10T10:15:02.982Z,15.66
2023-04-10T10:17:37.926Z,15.66
2023-04-10T10:20:10.693Z,15.57
2023-04-10T10:22:38.722Z,15.59
2023-04-10T10:25:08.885Z,15.69
2023-04-10T10:27:38.755Z,15.76
2023-04-10T10:30:25.422Z,15.89
2023-04-10T10:32:58.338Z,16.11
2023-04-10T10:35:29.651Z,16.34
2023-04-10T10:38:00.505Z,16.49
2023-04-10T10:40:37.323Z,16.62
2023-04-10T10:43:38.103Z,16.75
2023-04-10T10:46:12.893Z,16.78
2023-04-10T10:48:40.888Z,16.86
2023-04-10T10:51:08.790Z,16.94
2023-04-10T10:53:43.871Z,17.04
2023-04-10T10:56:20.766Z,17.05
2023-04-10T10:58:58.794Z,17.04
2023-04-10T11:01:27.544Z,17.01
2023-04-10T11:03:55.595Z,17.00
2023-04-10T11:06:51.243Z,17.07
2023-04-10T11:09:52.077Z,17.17
2023-04-10T11:12:23.528Z,17.24
2023-04-10T11:15:03.200Z,17.19
2023-04-10T11:17:50.800Z,17.09
2023-04-10T11:20:21.900Z,17.06
2023-04-10T11:23:11.313Z,17.06
2023-04-10T11:25:53.103Z,17.13
2023-04-10T11:28:33.155Z,17.13
2023-04-10T11:31:22.104Z,17.12
2023-04-10T11:34:10.947Z,17.13
2023-04-10T11:36:42.069Z,17.16
2023-04-10T11:39:17.841Z,17.20
2023-04-10T11:41:50.847Z,17.21
2023-04-10T11:44:35.468Z,17.24
2023-04-10T11:47:03.507Z,17.26
2023-04-10T11:49:32.960Z,17.25
2023-04-10T11:52:01.139Z,17.35
2023-04-10T11:54:29.699Z,17.45
2023-04-10T11:57:03.309Z,17.43
2023-04-10T11:59:33.438Z,17.44
2023-04-10T12:02:15.401Z,17.41
2023-04-10T12:04:44.353Z,17.31
2023-04-10T12:07:12.501Z,17.33
2023-04-10T12:09:40.920Z,17.36
2023-04-10T12:12:09.184Z,17.29
2023-04-10T12:14:38.280Z,17.17
2023-04-10T12:17:11.752Z,17.08
2023-04-10T12:19:40.287Z,17.04
2023-04-10T12:22:11.985Z,17.00
2023-04-10T12:24:45.033Z,16.95
2023-04-10T12:27:28.693Z,16.88
2023-04-10T12:29:58.063Z,16.80
2023-04-10T12:32:27.635Z,16.75
2023-04-10T12:34:58.278Z,16.73
2023-04-10T12:37:54.394Z,16.72
2023-04-10T12:40:22.322Z,16.71
2023-04-10T12:42:50.205Z,16.71
2023-04-10T12:45:18.052Z,16.76
2023-04-10T12:47:47.924Z,16.83
2023-04-10T12:50:18.335Z,16.86
2023-04-10T12:53:02.004Z,16.85
2023-04-10T12:55:31.255Z,16.83
2023-04-10T12:58:17.453Z,16.85
2023-04-10T13:00:46.106Z,16.84
2023-04-10T13:03:14.309Z,16.84
2023-04-10T13:05:43.265Z,16.81
2023-04-10T13:08:11.095Z,16.75
2023-04-10T13:10:39.001Z,16.80
2023-04-10T13:13:07.287Z,16.88
2023-04-10T13:15:35.459Z,16.89
2023-04-10T13:18:07.031Z,16.88
2023-04-10T13:20:36.136Z,16.88
2023-04-10T13:23:04.309Z,16.81
2023-04-10T13:25:33.875Z,16.70
2023-04-10T13:28:01.925Z,16.66
2023-04-10T13:30:29.818Z,16.64
2023-04-10T13:32:57.727Z,16.61
2023-04-10T13:35:25.791Z,16.53
2023-04-10T13:37:54.286Z,16.50
2023-04-10T13:40:22.297Z,16.46
2023-04-10T13:42:50.214Z,16.41
2023-04-10T13:45:18.339Z,16.42
2023-04-10T13:47:46.222Z,16.48
2023-04-10T13:50:14.136Z,16.49
2023-04-10T13:52:42.153Z,16.47
2023-04-10T13:55:10.547Z,16.50
2023-04-10T13:57:38.993Z,16.54
2023-04-10T14:00:10.322Z,16.64
2023-04-10T14:02:41.098Z,16.83
2023-04-10T14:05:09.671Z,17.03
2023-04-10T14:07:37.556Z,17.18
2023-04-10T14:10:07.481Z,17.28
2023-04-10T14:12:36.264Z,17.41
2023-04-10T14:15:06.320Z,17.52
2023-04-10T14:17:34.795Z,17.52
2023-04-10T14:20:02.789Z,17.49
2023-04-10T14:22:31.759Z,17.38
2023-04-10T14:25:11.702Z,17.21
2023-04-10T14:27:40.734Z,17.09
2023-04-10T14:30:10.122Z,17.02
2023-04-10T14:32:41.829Z,16.94
2023-04-10T14:35:10.704Z,16.86
2023-04-10T14:37:38.896Z,16.77
2023-04-10T14:40:07.792Z,16.73
2023-04-10T14:42:36.172Z,16.70
2023-04-10T14:45:05.595Z,16.69
2023-04-10T14:47:33.696Z,16.69
2023-04-10T14:50:01.817Z,16.65
2023-04-10T14:52:29.612Z,16.52
2023-04-10T14:54:57.484Z,16.45
2023-04-10T14:57:25.476Z,16.43
2023-04-10T14:59:53.325Z,16.47
2023-04-10T15:02:21.534Z,16.52
2023-04-10T15:04:49.489Z,16.52
2023-04-10T15:07:17.457Z,16.48
2023-04-10T15:09:46.269Z,16.41
2023-04-10T15:12:14.419Z,16.33
2023-04-10T15:14:42.703Z,16.24
2023-04-10T15:17:10.657Z,16.14
2023-04-10T15:19:38.545Z,16.05
2023-04-10T15:22:06.377Z,15.99
2023-04-10T15:24:46.937Z,15.95
2023-04-10T15:27:21.354Z,15.91
2023-04-10T15:29:49.682Z,15.89
2023-04-10T15:32:17.721Z,15.87
2023-04-10T15:34:45.720Z,15.83
2023-04-10T15:37:13.571Z,15.80
2023-04-10T15:39:41.468Z,15.76
2023-04-10T15:42:09.433Z,15.71
2023-04-10T15:44:37.370Z,15.66
2023-04-10T15:47:05.269Z,15.62
2023-04-10T15:49:38.381Z,15.59
2023-04-10T15:52:07.148Z,15.58
2023-04-10T15:54:35.405Z,15.58
2023-04-10T15:57:03.802Z,15.54
2023-04-10T15:59:33.319Z,15.50
2023-04-10T16:02:01.800Z,15.49
2023-04-10T16:04:30.988Z,15.45
2023-04-10T16:06:59.376Z,15.39
2023-04-10T16:09:27.999Z,15.34
2023-04-10T16:11:56.324Z,15.32
2023-04-10T16:14:24.464Z,15.33
2023-04-10T16:16:52.639Z,15.33
2023-04-10T16:19:21.154Z,15.32
2023-04-10T16:21:50.220Z,15.30
2023-04-10T16:24:18.319Z,15.29
2023-04-10T16:26:46.394Z,15.27
2023-04-10T16:29:16.033Z,15.24
2023-04-10T16:31:44.191Z,15.20
2023-04-10T16:34:12.115Z,15.17
2023-04-10T16:36:40.251Z,15.14
2023-04-10T16:39:08.649Z,15.12
2023-04-10T16:41:36.803Z,15.07
2023-04-10T16:44:04.946Z,15.00
2023-04-10T16:46:33.228Z,14.94
2023-04-10T16:49:01.690Z,14.89
2023-04-10T16:51:29.945Z,14.84
2023-04-10T16:53:57.811Z,14.78
2023-04-10T16:56:26.186Z,14.73
2023-04-10T16:58:54.827Z,14.68
2023-04-10T17:01:27.285Z,14.60
2023-04-10T17:03:55.670Z,14.51
2023-04-10T17:06:23.811Z,14.44
2023-04-10T17:08:51.659Z,14.41
2023-04-10T17:11:19.885Z,14.34
2023-04-10T17:13:47.787Z,14.25
2023-04-10T17:16:16.228Z,14.16
2023-04-10T17:18:46.047Z,14.06
2023-04-10T17:21:14.024Z,13.96
2023-04-10T17:23:42.568Z,13.86
2023-04-10T17:26:15.103Z,13.78
2023-04-10T17:28:46.723Z,13.67
2023-04-10T17:31:15.037Z,13.55
2023-04-10T17:33:44.318Z,13.45
2023-04-10T17:36:13.144Z,13.34
2023-04-10T17:38:42.277Z,13.25
2023-04-10T17:41:15.496Z,13.14
2023-04-10T17:43:43.880Z,13.05
2023-04-10T17:46:15.484Z,12.96
2023-04-10T17:48:44.534Z,12.86
2023-04-10T17:51:12.887Z,12.75
2023-04-10T17:53:41.218Z,12.63
2023-04-10T17:56:18.798Z,12.53
2023-04-10T17:58:47.195Z,12.46
2023-04-10T18:01:27.536Z,12.40
2023-04-10T18:03:56.287Z,12.32
2023-04-10T18:06:24.834Z,12.25
2023-04-10T18:08:53.226Z,12.19
2023-04-10T18:11:22.577Z,12.12
2023-04-10T18:13:50.847Z,12.07
2023-04-10T18:16:19.117Z,12.00
2023-04-10T18:18:47.482Z,11.94
2023-04-10T18:21:16.083Z,11.86
2023-04-10T18:23:44.663Z,11.80
2023-04-10T18:26:13.285Z,11.73
2023-04-10T18:28:43.183Z,11.66
2023-04-10T18:31:14.662Z,11.58
2023-04-10T18:33:43.437Z,11.50
2023-04-10T18:36:13.926Z,11.44
2023-04-10T18:38:43.821Z,11.37
2023-04-10T18:41:12.024Z,11.30
2023-04-10T18:43:40.182Z,11.24
2023-04-10T18:46:08.402Z,11.18
2023-04-10T18:48:42.778Z,11.13
2023-04-10T18:51:13.854Z,11.08
2023-04-10T18:53:42.031Z,11.02
2023-04-10T18:56:10.229Z,10.97
2023-04-10T18:58:38.280Z,10.92
2023-04-10T19:01:06.885Z,10.87
2023-04-10T19:03:35.295Z,10.83
2023-04-10T19:06:03.781Z,10.78
2023-04-10T19:08:31.689Z,10.71
2023-04-10T19:11:03.208Z,10.66
2023-04-10T19:13:31.274Z,10.62
2023-04-10T19:16:03.445Z,10.57
2023-04-10T19:18:32.197Z,10.53
2023-04-10T19:21:00.378Z,10.49
2023-04-10T19:37:05.109Z,10.63
2023-04-10T19:39:33.368Z,10.63
2023-04-10T19:42:03.309Z,10.53
2023-04-10T19:44:31.719Z,10.43
2023-04-10T19:47:00.137Z,10.34
2023-04-10T19:49:28.624Z,10.25
2023-04-10T19:51:57.267Z,10.16
2023-04-10T19:54:25.310Z,10.08
2023-04-10T19:56:53.390Z,10.01
2023-04-10T19:59:21.645Z,9.93
2023-04-10T20:01:49.894Z,9.85
2023-04-10T20:04:18.007Z,9.76
2023-04-10T20:06:46.769Z,9.71
2023-04-10T20:09:15.680Z,9.65
2023-04-10T20:11:43.570Z,9.60
2023-04-10T20:14:11.455Z,9.55
2023-04-10T20:16:41.154Z,9.49
2023-04-10T20:19:09.256Z,9.43
2023-04-10T20:21:37.103Z,9.37
2023-04-10T20:24:05.278Z,9.32
2023-04-10T20:26:33.928Z,9.27
2023-04-10T20:29:01.907Z,9.23
2023-04-10T20:31:30.552Z,9.20
2023-04-10T20:33:59.522Z,9.14
2023-04-10T20:36:27.494Z,9.08
2023-04-10T20:38:55.631Z,9.04
2023-04-10T20:41:25.283Z,8.99
2023-04-10T20:43:55.761Z,8.94
2023-04-10T20:46:24.723Z,8.87
2023-04-10T20:48:55.685Z,8.83
2023-04-10T20:51:23.793Z,8.78
2023-04-10T20:53:51.723Z,8.73
2023-04-10T20:56:21.132Z,8.68
2023-04-10T20:58:50.702Z,8.63
2023-04-10T21:01:18.588Z,8.59
2023-04-10T21:03:46.786Z,8.56
2023-04-10T21:06:15.438Z,8.53
2023-04-10T21:08:43.425Z,8.50
2023-04-10T21:11:11.446Z,8.48
2023-04-10T21:13:39.308Z,8.45
2023-04-10T21:16:07.427Z,8.41
2023-04-10T21:18:35.409Z,8.39
2023-04-10T21:21:03.449Z,8.35
2023-04-10T21:23:31.275Z,8.30
2023-04-10T21:25:59.207Z,8.25
2023-04-10T21:28:27.668Z,8.20
2023-04-10T21:30:55.557Z,8.15
2023-04-10T21:33:23.496Z,8.12
2023-04-10T21:35:51.377Z,8.08
2023-04-10T21:38:19.396Z,8.05
2023-04-10T21:40:54.460Z,8.02
2023-04-10T21:43:22.444Z,7.98
2023-04-10T21:45:50.381Z,7.96
2023-04-10T21:48:20.528Z,7.93
2023-04-10T21:50:49.814Z,7.89
2023-04-10T21:53:17.705Z,7.86
2023-04-10T21:55:45.866Z,7.83
2023-04-10T21:58:13.734Z,7.80
2023-04-10T22:00:42.570Z,7.79
2023-04-10T22:03:10.719Z,7.76
2023-04-10T22:05:38.903Z,7.74
2023-04-10T22:08:06.761Z,7.72
2023-04-10T22:10:35.210Z,7.71
2023-04-10T22:13:03.169Z,7.69
2023-04-10T22:15:31.162Z,7.66
2023-04-10T22:17:59.255Z,7.63
2023-04-10T22:20:27.187Z,7.62
2023-04-10T22:22:55.057Z,7.59
2023-04-10T22:25:22.972Z,7.56
2023-04-10T22:27:50.912Z,7.53
2023-04-10T22:30:18.820Z,7.50
2023-04-10T22:32:46.763Z,7.48
2023-04-10T22:35:15.890Z,7.45
2023-04-10T22:37:44.382Z,7.40
2023-04-10T22:40:12.307Z,7.38
2023-04-10T22:42:40.730Z,7.35
2023-04-10T22:45:09.003Z,7.33
2023-04-10T22:47:36.852Z,7.29
2023-04-10T22:50:05.582Z,7.28
2023-04-10T22:52:33.565Z,7.27
2023-04-10T22:55:01.539Z,7.25
2023-04-10T22:57:29.456Z,7.22
2023-04-10T22:59:59.375Z,7.21
2023-04-10T23:02:28.486Z,7.19
2023-04-10T23:04:57.701Z,7.17
2023-04-10T23:07:27.809Z,7.15
2023-04-10T23:09:55.760Z,7.14
2023-04-10T23:12:23.719Z,7.12
2023-04-10T23:14:51.600Z,7.12
2023-04-10T23:17:20.275Z,7.11
2023-04-10T23:19:48.160Z,7.10
2023-04-10T23:22:16.025Z,7.07
2023-04-10T23:24:43.920Z,7.04
2023-04-10T23:27:11.903Z,7.02
2023-04-10T23:29:39.763Z,7.02
2023-04-10T23:32:08.222Z,7.00
2023-04-10T23:34:36.252Z,6.97
2023-04-10T23:37:04.178Z,6.94
2023-04-10T23:39:32.121Z,6.92
2023-04-10T23:42:00.108Z,6.89
2023-04-10T23:44:28.020Z,6.87
2023-04-10T23:46:56.266Z,6.85
2023-04-10T23:49:24.432Z,6.84
2023-04-10T23:51:52.392Z,6.81
2023-04-10T23:54:20.256Z,6.79
2023-04-10T23:56:48.198Z,6.79
2023-04-10T23:59:17.070Z,6.82
